createdAt,value
2018-05-17T00:02:51.297Z,92.70
2018-05-17T00:07:52.564Z,93.20
2018-05-17T00:12:53.930Z,92.80
2018-05-17T00:17:55.185Z,93.00
2018-05-17T00:22:56.487Z,93.00
2018-05-17T00:27:57.807Z,93.20
2018-05-17T00:32:59.078Z,93.30
2018-05-17T00:38:00.322Z,93.30
2018-05-17T00:43:01.612Z,93.20
2018-05-17T00:48:03.658Z,93.20
2018-05-17T00:53:17.315Z,93.10
2018-05-17T00:58:18.576Z,93.10
2018-05-17T01:03:19.837Z,93.30
2018-05-17T01:08:21.072Z,93.30
2018-05-17T01:13:23.085Z,93.40
2018-05-17T01:18:24.370Z,93.40
2018-05-17T01:23:25.727Z,93.40
2018-05-17T01:28:26.968Z,93.50
2018-05-17T01:33:28.203Z,93.50
2018-05-17T01:38:29.506Z,93.40
2018-05-17T01:43:30.760Z,93.30
2018-05-17T01:48:32.232Z,93.20
2018-05-17T01:53:34.296Z,93.20
2018-05-17T01:58:35.542Z,93.20
2018-05-17T02:03:36.816Z,92.90
2018-05-17T02:08:38.087Z,92.20
2018-05-17T02:13:39.345Z,92.50
2018-05-17T02:18:40.629Z,92.60
2018-05-17T02:23:41.998Z,92.70
2018-05-17T02:28:43.813Z,92.10
2018-05-17T02:33:45.170Z,92.40
2018-05-17T02:38:46.439Z,92.20
2018-05-17T02:43:47.749Z,92.00
2018-05-17T02:48:49.075Z,91.80
2018-05-17T02:53:50.362Z,91.70
2018-05-17T02:58:51.699Z,91.50
2018-05-17T03:03:53.017Z,91.20
2018-05-17T03:08:54.244Z,91.30
2018-05-17T03:13:55.483Z,91.50
2018-05-17T03:18:56.763Z,91.50
2018-05-17T03:23:58.056Z,91.20
2018-05-17T03:28:59.368Z,90.80
2018-05-17T03:34:00.761Z,91.00
2018-05-17T03:39:02.951Z,90.40
2018-05-17T03:44:04.313Z,90.70
2018-05-17T03:49:07.099Z,90.40
2018-05-17T03:54:08.422Z,90.40
2018-05-17T03:59:09.767Z,90.40
2018-05-17T04:04:24.009Z,90.40
2018-05-17T04:09:25.322Z,90.40
2018-05-17T04:14:26.602Z,89.60
2018-05-17T04:19:27.931Z,88.20
2018-05-17T04:24:29.307Z,88.00
2018-05-17T04:29:30.585Z,87.30
2018-05-17T04:34:31.870Z,86.40
2018-05-17T04:39:33.108Z,86.60
2018-05-17T04:44:34.335Z,87.10
2018-05-17T04:49:35.607Z,85.60
2018-05-17T04:54:36.922Z,85.80
2018-05-17T04:59:38.258Z,84.80
2018-05-17T05:04:39.658Z,84.40
2018-05-17T05:09:40.946Z,85.20
2018-05-17T05:14:42.237Z,86.50
2018-05-17T05:19:43.516Z,85.90
2018-05-17T05:24:44.867Z,86.40
2018-05-17T05:29:46.157Z,85.40
2018-05-17T05:34:47.602Z,84.30
2018-05-17T05:39:48.838Z,84.40
2018-05-17T05:44:50.086Z,84.70
2018-05-17T05:49:51.365Z,84.50
2018-05-17T05:54:52.663Z,83.40
2018-05-17T05:59:53.900Z,83.80
2018-05-17T06:04:55.221Z,81.80
2018-05-17T06:09:57.213Z,80.20
2018-05-17T06:14:58.556Z,80.20
2018-05-17T06:20:00.559Z,77.10
2018-05-17T06:25:01.885Z,77.10
2018-05-17T06:30:03.263Z,75.60
2018-05-17T06:35:05.296Z,67.80
2018-05-17T06:40:06.543Z,67.70
2018-05-17T06:45:07.798Z,67.90
2018-05-17T06:50:09.066Z,65.60
2018-05-17T06:55:10.371Z,66.80
2018-05-17T07:00:11.692Z,68.40
2018-05-17T07:05:12.961Z,65.20
2018-05-17T07:10:14.237Z,64.20
2018-05-17T07:15:15.547Z,61.30
2018-05-17T07:20:16.854Z,61.50
2018-05-17T07:25:18.332Z,62.10
2018-05-17T07:30:19.683Z,62.50
2018-05-17T07:35:21.992Z,63.40
2018-05-17T07:40:23.294Z,60.10
2018-05-17T07:45:24.577Z,61.80
2018-05-17T07:50:25.926Z,61.80
2018-05-17T07:55:27.259Z,63.00
2018-05-17T08:00:29.304Z,62.40
2018-05-17T08:05:30.688Z,62.30
2018-05-17T08:10:32.029Z,61.50
2018-05-17T08:15:33.471Z,59.90
2018-05-17T08:20:34.735Z,61.70
2018-05-17T08:25:36.025Z,61.60
2018-05-17T08:30:37.348Z,62.30
2018-05-17T08:41:13.670Z,59.00
2018-05-17T08:46:16.998Z,59.30
2018-05-17T08:51:19.864Z,59.80
2018-05-17T08:56:24.643Z,59.40
2018-05-17T09:01:26.885Z,57.30
2018-05-17T09:06:31.107Z,57.30
2018-05-17T09:11:33.210Z,57.70
2018-05-17T09:16:35.875Z,56.00
2018-05-17T09:21:38.561Z,57.70
2018-05-17T09:26:40.217Z,59.10
2018-05-17T09:31:43.010Z,59.60
2018-05-17T09:36:48.294Z,60.30
2018-05-17T09:41:51.554Z,60.30
2018-05-17T09:46:53.622Z,60.70
2018-05-17T09:51:56.867Z,60.00
2018-05-17T09:57:04.877Z,59.30
2018-05-17T10:02:56.374Z,57.70
2018-05-17T10:08:00.669Z,57.70
2018-05-17T10:13:02.306Z,57.70
2018-05-17T10:18:04.360Z,60.40
2018-05-17T10:23:05.986Z,60.30
2018-05-17T10:28:07.217Z,63.20
2018-05-17T10:33:08.535Z,61.10
2018-05-17T10:38:09.799Z,62.70
2018-05-17T10:43:11.014Z,63.00
2018-05-17T10:48:26.746Z,62.70
2018-05-17T10:53:28.353Z,62.80
2018-05-17T10:58:29.707Z,57.40
2018-05-17T11:03:30.971Z,56.90
2018-05-17T11:08:32.364Z,58.00
2018-05-17T11:13:33.720Z,56.70
2018-05-17T11:18:35.174Z,53.90
2018-05-17T11:23:36.539Z,54.40
2018-05-17T11:28:37.857Z,54.80
2018-05-17T11:33:39.220Z,54.50
2018-05-17T11:38:40.564Z,55.90
2018-05-17T11:43:42.668Z,54.00
2018-05-17T11:48:43.938Z,54.00
2018-05-17T11:53:45.225Z,53.10
2018-05-17T11:58:46.486Z,51.30
2018-05-17T12:03:47.739Z,51.80
2018-05-17T12:08:49.006Z,50.70
2018-05-17T12:13:50.415Z,51.00
2018-05-17T12:18:52.490Z,51.40
2018-05-17T12:23:54.547Z,50.50
2018-05-17T12:28:55.910Z,50.60
2018-05-17T12:33:57.246Z,50.10
2018-05-17T12:38:59.535Z,52.00
2018-05-17T12:44:00.792Z,50.20
2018-05-17T12:49:02.035Z,50.20
2018-05-17T12:54:03.399Z,49.00
2018-05-17T12:59:04.727Z,48.80
2018-05-17T13:04:06.803Z,48.80
2018-05-17T13:09:08.830Z,49.30
2018-05-17T13:14:10.139Z,49.30
2018-05-17T13:19:11.527Z,47.30
2018-05-17T13:24:12.846Z,46.80
2018-05-17T13:29:14.218Z,45.50
2018-05-17T13:34:15.551Z,46.70
2018-05-17T13:39:16.822Z,45.10
2018-05-17T13:44:18.176Z,42.80
2018-05-17T13:49:19.417Z,42.80
2018-05-17T13:54:20.858Z,42.40
2018-05-17T13:59:22.928Z,42.50
2018-05-17T14:04:24.942Z,42.60
2018-05-17T14:09:26.277Z,42.00
2018-05-17T14:14:28.393Z,40.90
2018-05-17T14:19:29.698Z,40.80
2018-05-17T14:24:31.091Z,41.10
2018-05-17T14:29:32.501Z,39.50
2018-05-17T14:34:34.954Z,39.30
2018-05-17T14:39:36.428Z,38.80
2018-05-17T14:44:37.810Z,38.70
2018-05-17T14:49:39.259Z,39.70
2018-05-17T14:54:40.605Z,41.30
2018-05-17T14:59:41.802Z,40.20
2018-05-17T15:04:43.079Z,39.60
2018-05-17T15:09:44.453Z,39.90
2018-05-17T15:14:45.843Z,38.70
2018-05-17T15:19:47.885Z,38.70
2018-05-17T15:24:49.281Z,38.50
2018-05-17T15:29:51.463Z,37.80
2018-05-17T15:34:52.819Z,37.80
2018-05-17T15:39:54.174Z,39.30
2018-05-17T15:44:55.534Z,38.30
2018-05-17T15:49:56.922Z,38.00
2018-05-17T15:54:58.227Z,38.40
2018-05-17T15:59:59.529Z,36.50
2018-05-17T16:05:00.921Z,38.20
2018-05-17T16:10:02.267Z,38.50
2018-05-17T16:15:04.505Z,37.40
2018-05-17T16:20:05.734Z,37.40
2018-05-17T16:25:07.070Z,38.10
2018-05-17T16:30:08.372Z,37.40
2018-05-17T16:35:09.651Z,38.10
2018-05-17T16:40:10.938Z,38.60
2018-05-17T16:45:12.274Z,38.50
2018-05-17T16:50:13.551Z,37.90
2018-05-17T16:55:14.802Z,38.20
2018-05-17T17:00:16.070Z,39.10
2018-05-17T17:05:17.323Z,38.50
2018-05-17T17:10:18.554Z,39.10
2018-05-17T17:15:19.827Z,38.60
2018-05-17T17:20:21.115Z,39.70
2018-05-17T17:25:22.502Z,39.50
2018-05-17T17:30:23.807Z,40.50
2018-05-17T17:35:25.064Z,39.90
2018-05-17T17:40:32.517Z,40.10
2018-05-17T17:45:33.925Z,40.50
2018-05-17T17:50:35.955Z,41.20
2018-05-17T17:55:37.221Z,41.10
2018-05-17T18:00:38.626Z,41.70
2018-05-17T18:05:39.948Z,42.10
2018-05-17T18:10:42.127Z,42.70
2018-05-17T18:15:43.477Z,43.00
2018-05-17T18:20:45.511Z,45.10
2018-05-17T18:25:46.798Z,45.00
2018-05-17T18:30:48.098Z,45.40
2018-05-17T18:35:49.451Z,46.70
2018-05-17T18:40:50.818Z,47.60
2018-05-17T18:45:52.103Z,48.50
2018-05-17T18:50:54.274Z,51.20
2018-05-17T18:55:55.785Z,51.10
2018-05-17T19:00:57.785Z,53.30
2018-05-17T19:05:59.078Z,53.30
2018-05-17T19:11:02.402Z,55.10
2018-05-17T19:16:04.444Z,56.70
2018-05-17T19:21:06.787Z,56.70
2018-05-17T19:26:08.236Z,59.40
2018-05-17T19:31:10.283Z,60.70
2018-05-17T19:36:11.546Z,60.60
2018-05-17T19:41:12.842Z,63.50
2018-05-17T19:46:14.850Z,63.80
2018-05-17T19:51:16.131Z,63.80
2018-05-17T19:56:17.368Z,67.00
2018-05-17T20:01:18.676Z,71.50
2018-05-17T20:06:20.050Z,73.80
2018-05-17T20:11:21.476Z,77.10
2018-05-17T20:16:22.791Z,78.10
2018-05-17T20:21:24.821Z,82.50
2018-05-17T20:26:26.277Z,82.60
2018-05-17T20:31:27.603Z,81.60
2018-05-17T20:36:29.571Z,81.90
2018-05-17T20:41:30.817Z,81.90
2018-05-17T20:46:32.183Z,81.50
2018-05-17T20:51:33.572Z,83.40
2018-05-17T20:56:35.629Z,86.70
2018-05-17T21:01:36.957Z,86.60
2018-05-17T21:06:38.242Z,86.60
2018-05-17T21:11:39.502Z,86.20
2018-05-17T21:16:40.878Z,86.40
2018-05-17T21:21:42.255Z,85.90
2018-05-17T21:26:44.327Z,86.40
2018-05-17T21:31:45.702Z,86.40
2018-05-17T21:36:47.713Z,86.10
2018-05-17T21:41:48.995Z,86.10
2018-05-17T21:46:50.285Z,86.80
2018-05-17T21:51:51.603Z,87.00
2018-05-17T21:56:52.897Z,87.50
2018-05-17T22:01:54.247Z,89.00
2018-05-17T22:06:55.579Z,88.90
2018-05-17T22:11:56.999Z,89.50
2018-05-17T22:16:59.335Z,90.50
2018-05-17T22:22:00.733Z,90.00
2018-05-17T22:27:02.125Z,90.10
2018-05-17T22:32:04.261Z,90.60
2018-05-17T22:37:05.901Z,90.50
2018-05-17T22:42:07.503Z,90.40
2018-05-17T22:47:09.072Z,90.60
2018-05-17T22:52:10.406Z,90.80
2018-05-17T22:57:11.853Z,90.70
2018-05-17T23:02:14.005Z,90.80
2018-05-17T23:07:15.510Z,90.80
2018-05-17T23:12:16.872Z,90.50
2018-05-17T23:17:18.221Z,90.90
2018-05-17T23:22:32.460Z,91.10
2018-05-17T23:27:33.831Z,91.10
2018-05-17T23:32:35.218Z,91.50
2018-05-17T23:37:37.255Z,91.10
2018-05-17T23:42:38.684Z,91.10
2018-05-17T23:47:39.987Z,91.50
2018-05-17T23:52:41.659Z,92.10
2018-05-17T23:57:43.110Z,92.40
